Tiempo atmosférico en la estación meteorológica de Barcena de Cicero, Treto, Cantabria (10 m.)



Fecha
DESCASC
Temp. máxima en grados centígrados (hora)
DESCASC
Temp. mínima en grados centígrados (hora)
DESCASC
Temp. media en grados centígrados
DESCASC
Racha de viento máxima en m/sg (hora)
DESCASC
Velocidad máxima media en intervalos de 10 minutos(hora)
DESCASC
Precipitaciones diarias en mm
DESCASC
Precipitaciones de 00:00 a 06:00 en mm
DESCASC
Precipitaciones de 06:00 a 12:00 en mm
DESCASC
Precipitaciones de 12:00 a 18:00 en mm
DESCASC
Precipitaciones de 18:00 a 24:00 en mm
DESCASC
23-06-2019 22.9 (15:00) 16.7 (05:10) 19.8 6.11 (07:20) 3.06 (22:20) 0 0 0 0 0
22-06-2019 22 (12:30) 10 (07:00) 16 10.28 (14:40) 5.28 (17:50) 0 0 0 0 0
21-06-2019 19.2 (16:20) 13.5 (23:40) 16.4 5.83 (17:30) 3.61 (17:40) 2.6 2.4 0 0.2 0
20-06-2019 18.7 (15:50) 15.8 (00:00) 17.3 5.56 (23:30) 3.33 (19:20) 0.2 0.2 0 0 0
19-06-2019 -- (--) -- (--) -- -- (--) -- (--) -- -- 0 -- 0
18-06-2019 25.3 (15:00) 13.7 (00:00) 19.5 10.83 (15:50) 6.11 (15:10) 0 0 0 0 0
17-06-2019 19.7 (17:30) 11.3 (00:00) 15.5 6.67 (15:30) 4.17 (14:00) 0 0 0 0 0
16-06-2019 19.2 (13:20) 9.1 (00:00) 14.2 11.67 (12:50) 7.22 (14:50) 0 0 0 0 0
15-06-2019 19.7 (13:20) 11.5 (00:00) 15.6 6.67 (14:20) 4.17 (14:40) 0 0 0 0 0
14-06-2019 16.2 (09:40) 9.3 (00:00) 12.8 5.28 (12:40) 3.33 (12:40) 0 0 0 0 0
13-06-2019 17.4 (14:10) 9.1 (00:00) 13.3 6.94 (12:50) 4.72 (12:50) 0 0 0 0 0
12-06-2019 18 (17:20) 12.6 (00:00) 15.3 11.67 (11:40) 5.28 (11:40) 0 0 0 0 0
11-06-2019 16.6 (15:50) 10.6 (00:00) 13.6 11.67 (16:20) 6.11 (15:30) 21 3.2 12.4 4 1.4
10-06-2019 17.4 (16:20) 9.9 (00:00) 13.6 6.39 (15:10) 3.61 (14:50) 0.8 0.2 0 0 0.6
09-06-2019 16.2 (14:10) 12.7 (00:00) 14.5 8.06 (16:20) 4.44 (16:20) 2 0 0.8 1 0.2
08-06-2019 17.4 (15:00) 11 (00:00) 14.2 11.94 (14:50) 7.5 (14:10) 0 0 0 0 0
07-06-2019 20.7 (00:00) 14.1 (00:00) 17.4 13.61 (12:20) 7.22 (15:30) 0.2 0.2 0 0 0
06-06-2019 23.6 (21:30) 10.8 (00:00) 17.2 13.06 (23:50) 7.22 (23:59) 0 0 0 0 0
05-06-2019 17.1 (18:50) 12 (00:00) 14.6 11.39 (14:20) 5.56 (13:10) 14.4 11 3.2 0 0.2
04-06-2019 22 (13:10) 13.3 (00:00) 17.7 10.56 (15:40) 6.11 (15:40) 0 0 0 0 0
03-06-2019 20.9 (11:10) 14.4 (00:00) 17.6 7.78 (15:10) 4.44 (14:30) 0 0 0 0 0
02-06-2019 23.7 (12:30) 14.6 (00:00) 19.2 6.11 (14:20) 3.61 (14:20) 0 0 0 0 0
01-06-2019 26.3 (13:30) 12.8 (00:00) 19.5 4.17 (18:10) 2.78 (17:20) 0 0 0 0 0
31-05-2019 21.7 (16:50) 10.5 (00:00) 16.1 10 (17:40) 6.67 (16:30) 0 0 0 0 0
30-05-2019 19.8 (18:30) 9.3 (00:00) 14.5 10.83 (14:40) 7.5 (14:50) 0 0 0 0 0
29-05-2019 18 (16:50) 12.1 (00:00) 15.1 6.11 (19:10) 3.89 (19:00) 1.4 0 1.4 0 0
28-05-2019 17.8 (17:10) 12.3 (00:00) 15 10.28 (18:10) 5.28 (15:50) 1.4 0 1.4 0 0
27-05-2019 17.1 (16:10) 13.5 (00:00) 15.3 7.78 (15:00) 4.44 (15:00) 0.2 0 0 0.2 0
26-05-2019 17.7 (13:30) 12.9 (00:00) 15.3 7.22 (14:20) 4.44 (15:10) 0.4 0 0.2 0 0.2

Gráficas

Temp. máximas Temp. mínimas Temp. medias Precipitaciones Rachas de viento máximas Velocidades máximas media en intervalos de 10 minutos

Datos horarios

Fecha y hora oficial Temperatura (ºC) Velocidad del viento (km/h) Dirección del viento Racha (km/h) Dirección de racha Precipitación (mm) Presión (hPa) Tendencia (hPa) Humedad (%)
2019-06-24 23:00:00 -- -- -- -- -- -- -- -- --
2019-06-24 22:00:00 19 3 Norte 9 Noroeste 0 -- -- 87
2019-06-24 21:00:00 19.6 5 Noroeste 10 Noroeste 0 -- -- 85
2019-06-24 20:00:00 20.1 7 Noroeste 18 Oeste 0 -- -- 82
2019-06-24 19:00:00 20.3 11 Oeste 24 Oeste 0 -- -- 81
2019-06-24 18:00:00 20.6 13 Noroeste 30 Oeste 0 -- -- 81
2019-06-24 17:00:00 20.3 12 Noroeste 28 Sudoeste 0 -- -- 86
2019-06-24 16:00:00 19.8 13 Noroeste 23 Noroeste 0 -- -- 87
2019-06-24 15:00:00 19.9 8 Nordeste 19 Nordeste 0 -- -- 88
2019-06-24 14:00:00 20.4 7 Nordeste 17 Nordeste 0 -- -- 88
2019-06-24 13:00:00 19.5 5 Noroeste 10 Noroeste 0 -- -- 87
2019-06-24 12:00:00 18.8 5 Noroeste 8 Noroeste 0 -- -- 91
2019-06-24 11:00:00 18.7 4 Noroeste 8 Oeste 0 -- -- 90
2019-06-24 10:00:00 18 5 Noroeste 10 Noroeste 0 -- -- 95
2019-06-24 09:00:00 17.2 3 Sur 6 Sur 0 -- -- 97
2019-06-24 08:00:00 16.8 0 Calma 5 Sudoeste 0 -- -- 96
2019-06-24 07:00:00 16.6 3 Sur 9 Sur 0 -- -- 96
2019-06-24 06:00:00 16.7 5 Sur 11 Sudoeste 0 -- -- 96
2019-06-24 05:00:00 16.9 3 Oeste 6 Sur 0 -- -- 94
2019-06-24 04:00:00 17 3 Noroeste 5 Noroeste 0 -- -- 92
2019-06-24 03:00:00 17.4 3 Noroeste 7 Noroeste 0 -- -- 90
2019-06-24 02:00:00 17.7 4 Noroeste 7 Oeste 0 -- -- 89
2019-06-24 01:00:00 17.9 3 Noroeste 6 Noroeste 0 -- -- 88
2019-06-24 00:00:00 18.5 3 Norte 12 Nordeste 0 -- -- 86
2019-06-23 23:00:00 18.8 7 Nordeste 15 Este 0 -- -- 83
2019-06-23 22:00:00 19 4 Nordeste 12 Nordeste 0 -- -- 81
2019-06-23 21:00:00 19.6 4 Nordeste 9 Nordeste 0 -- -- 78
2019-06-23 20:00:00 20 5 Nordeste 11 Nordeste 0 -- -- 77
2019-06-23 19:00:00 20.2 6 Nordeste 14 Este 0 -- -- 77
2019-06-23 18:00:00 20.7 8 Nordeste 13 Este 0 -- -- 75
2019-06-23 17:00:00 21.2 9 Nordeste 16 Norte 0 -- -- 74
2019-06-23 16:00:00 22.4 7 Nordeste 18 Nordeste 0 -- -- 70
2019-06-23 15:00:00 22.9 5 Noroeste 11 Noroeste 0 -- -- 67
2019-06-23 14:00:00 21.5 2 Sur 4 Este 0 -- -- 81
2019-06-23 13:00:00 21.4 3 Este 5 Sudeste 0 -- -- 77
2019-06-23 12:00:00 20.6 2 Sudeste 10 Sur 0 -- -- 82
2019-06-23 11:00:00 20 4 Sur 11 Sudeste 0 -- -- 80
2019-06-23 10:00:00 20.4 2 Nordeste 15 Sur 0 -- -- 70
2019-06-23 09:00:00 20 5 Sur 15 Nordeste 0 -- -- 68
2019-06-23 08:00:00 19.3 7 Sudoeste 22 Oeste 0 -- -- 74
2019-06-23 07:00:00 18.6 8 Sudoeste 22 Oeste 0 -- -- 87
2019-06-23 06:00:00 16.7 0 Calma 8 Noroeste 0 -- -- 97
2019-06-23 05:00:00 16.8 0 Calma 7 Sudeste 0 -- -- 96
2019-06-23 04:00:00 17 0 Calma 4 Sur 0 -- -- 96
2019-06-23 03:00:00 17.3 2 Noroeste 8 Noroeste 0 -- -- 96
2019-06-23 02:00:00 17.2 3 Sudeste 4 Sudeste 0 -- -- 96
2019-06-23 01:00:00 17.2 2 Noroeste 6 Norte 0 -- -- 93
2019-06-23 00:00:00 18.4 2 Sudeste 5 Sudeste 0 -- -- 91
2019-06-22 23:00:00 19.1 3 Noroeste 5 Noroeste 0 -- -- 88
2019-06-22 22:00:00 20 3 Nordeste 7 Nordeste 0 -- -- 84
2019-06-22 21:00:00 20.5 4 Nordeste 15 Nordeste 0 -- -- 82
2019-06-22 20:00:00 21.2 6 Nordeste 22 Nordeste 0 -- -- 78
2019-06-22 19:00:00 21.9 8 Nordeste 31 Este 0 -- -- 75
2019-06-22 18:00:00 21.1 19 Nordeste 36 Este 0 -- -- 79
2019-06-22 17:00:00 21.2 15 Nordeste 30 Este 0 -- -- 76
2019-06-22 16:00:00 21 13 Nordeste 30 Nordeste 0 -- -- 80
2019-06-22 15:00:00 20.5 17 Nordeste 37 Nordeste 0 -- -- 80
2019-06-22 14:00:00 20.6 14 Nordeste 26 Nordeste 0 -- -- 76
2019-06-22 13:00:00 21.8 12 Nordeste 20 Este 0 -- -- 74
2019-06-22 12:00:00 21 8 Nordeste 15 Nordeste 0 -- -- 71
2019-06-22 11:00:00 19.1 6 Noroeste 10 Noroeste 0 -- -- 72
2019-06-22 10:00:00 16.9 3 Sudeste 8 Sudeste 0 -- -- 80
2019-06-22 09:00:00 14.6 5 Sur 12 Sudeste 0 -- -- 89
2019-06-22 08:00:00 11.8 4 Sur 9 Sudeste 0 -- -- 98
2019-06-22 07:00:00 10 2 Sur 8 Sur 0 -- -- 98
2019-06-22 06:00:00 10.2 2 Sur 10 Sur 0 -- -- 98
2019-06-22 05:00:00 10.8 2 Sur 8 Sur 0 -- -- 96
2019-06-22 04:00:00 11.3 3 Sudoeste 10 Sudeste 0 -- -- 96
2019-06-22 03:00:00 11.9 0 Calma 8 Sur 0 -- -- 95
2019-06-22 02:00:00 12.3 4 Sur 9 Sur 0 -- -- 95
2019-06-22 01:00:00 12.4 2 Sur 4 Sur 0 -- -- 94
2019-06-22 00:00:00 13.7 3 Sur 5 Sur 0 -- -- 94
2019-06-21 23:00:00 14.8 2 Noroeste 9 Este 0 -- -- 87
2019-06-21 22:00:00 16.6 4 Este 13 Nordeste 0 -- -- 82
2019-06-21 21:00:00 17.5 8 Nordeste 16 Nordeste 0 -- -- 79
2019-06-21 20:00:00 17.8 10 Nordeste 19 Este 0 -- -- 77
2019-06-21 19:00:00 17.9 13 Este 20 Este 0 -- -- 76
2019-06-21 18:00:00 18.4 13 Este 21 Este 0 -- -- 75
2019-06-21 17:00:00 19 11 Nordeste 18 Nordeste 0 -- -- 66
2019-06-21 16:00:00 19 11 Nordeste 20 Este 0 -- -- 72
2019-06-21 15:00:00 18.9 9 Nordeste 19 Este 0 -- -- 74
2019-06-21 14:00:00 18 8 Este 11 Este 0.2 -- -- 77
2019-06-21 13:00:00 16.7 5 Oeste 11 Noroeste 0 -- -- 82
2019-06-21 12:00:00 16.9 3 Sur 12 Sur 0 -- -- 80
2019-06-21 11:00:00 16.5 2 Oeste 8 Oeste 0 -- -- 82
2019-06-21 10:00:00 15.2 5 Norte 17 Norte 0 -- -- 88
2019-06-21 09:00:00 15.8 7 Norte 15 Noroeste 0 -- -- 89
2019-06-21 08:00:00 15.9 6 Norte 14 Norte 0 -- -- 88
2019-06-21 07:00:00 15.9 6 Norte 17 Nordeste 0 -- -- 88
2019-06-21 06:00:00 15.7 6 Norte 17 Nordeste 0.2 -- -- 90
2019-06-21 05:00:00 15.7 6 Nordeste 15 Nordeste 0.4 -- -- 91
2019-06-21 04:00:00 15.9 5 Nordeste 12 Norte 1 -- -- 93
2019-06-21 03:00:00 16.3 6 Nordeste 12 Este 0.6 -- -- 90
2019-06-21 02:00:00 16.7 4 Nordeste 15 Nordeste 0.2 -- -- 87
2019-06-21 01:00:00 17.2 8 Nordeste 14 Nordeste 0 -- -- 86
2019-06-21 00:00:00 17.3 6 Nordeste 20 Este 0 -- -- 85
2019-06-20 23:00:00 17.5 8 Nordeste 16 Nordeste 0 -- -- 87
2019-06-20 22:00:00 17.5 5 Nordeste 13 Este 0 -- -- 88
2019-06-20 21:00:00 17.6 6 Nordeste 15 Este 0 -- -- 87
2019-06-20 20:00:00 17.8 9 Nordeste 18 Este 0 -- -- 86
2019-06-20 19:00:00 18.1 11 Nordeste 19 Nordeste 0 -- -- 85
2019-06-20 18:00:00 18.5 9 Nordeste 17 Este 0 -- -- 84
2019-06-20 17:00:00 18.6 10 Nordeste 17 Este 0 -- -- 83
2019-06-20 16:00:00 18.7 7 Nordeste 13 Nordeste 0 -- -- 77
2019-06-20 15:00:00 18.1 5 Norte 13 Norte 0 -- -- 83
2019-06-20 14:00:00 17.2 6 Noroeste 11 Nordeste 0 -- -- 87
2019-06-20 13:00:00 16.9 9 Este 13 Este 0 -- -- 89
2019-06-20 12:00:00 17 2 Nordeste 5 Norte 0 -- -- 91
2019-06-20 11:00:00 16.2 2 Noroeste 8 Norte 0 -- -- 95
2019-06-20 10:00:00 16.1 4 Noroeste 8 Norte 0 -- -- 96
2019-06-20 09:00:00 16.1 4 Sudoeste 9 Sur 0 -- -- 96
2019-06-20 08:00:00 15.9 4 Sudoeste 7 Sur 0 -- -- 97
2019-06-20 07:00:00 15.8 4 Sudoeste 6 Sur 0 -- -- 96
2019-06-20 06:00:00 16 3 Norte 9 Norte 0.2 -- -- 96
2019-06-20 05:00:00 16.6 4 Norte 9 Noroeste 0 -- -- 92
2019-06-20 04:00:00 16.9 3 Noroeste 5 Noroeste 0 -- -- 90
2019-06-20 03:00:00 16.9 3 Oeste 7 Sudoeste 0 -- -- 90
2019-06-20 02:00:00 17 3 Noroeste 6 Sudoeste 0 -- -- 89
2019-06-20 01:00:00 17.1 3 Oeste 6 Sudoeste 0 -- -- 89
2019-06-20 00:00:00 17.4 0 Calma 15 Noroeste 0 -- -- 89
2019-06-19 23:00:00 18 7 Noroeste 11 Norte 0 -- -- 85
2019-06-19 22:00:00 18.4 4 Noroeste 8 Noroeste 0 -- -- 81
2019-06-19 21:00:00 18.7 3 Oeste 13 Noroeste 0 -- -- 79
2019-06-19 20:00:00 18.8 5 Noroeste 14 Oeste 0 -- -- 77
2019-06-19 19:00:00 19 5 Noroeste 11 Noroeste 0 -- -- 81
2019-06-19 18:00:00 19.2 4 Norte 10 Noroeste 0 -- -- 80
2019-06-19 17:00:00 19 7 Norte 13 Norte 0 -- -- 83
2019-06-19 16:00:00 19.4 6 Norte 17 Nordeste 0 -- -- 81
2019-06-19 15:00:00 20.4 8 Nordeste -- -- -- -- -- 79
2019-06-19 14:00:00 -- -- -- -- -- -- -- -- --
2019-06-19 13:00:00 20.2 8 Norte 17 Norte 0 -- -- 80
2019-06-19 12:00:00 19.5 11 Noroeste 19 Noroeste 0 -- -- 81
2019-06-19 11:00:00 19.6 11 Norte 19 Norte 0 -- -- 83
2019-06-19 10:00:00 18.7 6 Norte 15 Norte 0 -- -- 86
2019-06-19 09:00:00 16.9 4 Sudeste 10 Sudeste 0 -- -- 93
2019-06-19 08:00:00 14.4 5 Sur 14 Sudeste 0 -- -- 97
2019-06-19 07:00:00 13.6 6 Sur 10 Sur 0 -- -- 97
2019-06-19 06:00:00 14.5 4 Noroeste 7 Noroeste 0 -- -- 97
2019-06-19 05:00:00 14 2 Noroeste 8 Noroeste 0 -- -- 96
2019-06-19 04:00:00 14.1 2 Sudoeste 9 Noroeste 0 -- -- 94
2019-06-19 03:00:00 -- -- -- -- -- -- -- -- --
2019-06-19 02:00:00 15 4 Sudoeste 14 Sur 0 -- -- 95
2019-06-19 01:00:00 15 6 Sur 9 Sur 0 -- -- 95
2019-06-19 00:00:00 15.5 4 Sur 7 Sur 0 -- -- 94
2019-06-18 23:00:00 16.2 0 Calma 9 Norte 0 -- -- 91
2019-06-18 22:00:00 17.4 5 Norte 18 Norte 0 -- -- 87
2019-06-18 21:00:00 19 6 Norte 19 Nordeste 0 -- -- 82
2019-06-18 20:00:00 21.9 7 Norte 17 Noroeste 0 -- -- 70
2019-06-18 19:00:00 21.9 10 Norte 25 Noroeste 0 -- -- 72
2019-06-18 18:00:00 21.1 15 Noroeste 28 Noroeste 0 -- -- 76
2019-06-18 17:00:00 20.7 18 Noroeste 33 Norte 0 -- -- 79
2019-06-18 16:00:00 21.8 18 Norte 39 Noroeste 0 -- -- 76
2019-06-18 15:00:00 25.3 12 Norte 27 Noroeste 0 -- -- 69
2019-06-18 14:00:00 24 7 Nordeste 13 Este 0 -- -- 74
2019-06-18 13:00:00 22.4 8 Nordeste 13 Nordeste 0 -- -- 75
2019-06-18 12:00:00 20.9 10 Nordeste 16 Este 0 -- -- 81
2019-06-18 11:00:00 21.3 4 Nordeste 9 Nordeste 0 -- -- 80
2019-06-18 10:00:00 19.4 5 Nordeste 8 Nordeste 0 -- -- 83
2019-06-18 09:00:00 17.8 5 Sudeste 9 Sur 0 -- -- 94
2019-06-18 08:00:00 14.7 2 Oeste 8 Sur 0 -- -- 98
2019-06-18 07:00:00 13.8 0 Calma 10 Oeste 0 -- -- 98
2019-06-18 06:00:00 13.8 5 Sur 10 Sur 0 -- -- 97
2019-06-18 05:00:00 13.9 3 Sur 7 Sur 0 -- -- 96
2019-06-18 04:00:00 14.7 0 Calma 7 Noroeste 0 -- -- 94
2019-06-18 03:00:00 15.8 5 Noroeste 10 Oeste 0 -- -- 94
2019-06-18 02:00:00 16.1 3 Sudoeste 7 Oeste 0 -- -- 92
2019-06-18 01:00:00 16.4 4 Noroeste 8 Noroeste 0 -- -- 90
2019-06-18 00:00:00 16.9 3 Noroeste 10 Noroeste 0 -- -- 87
2019-06-17 23:00:00 17.2 5 Oeste 17 Sudoeste 0 -- -- 86
2019-06-17 22:00:00 17.5 10 Oeste 21 Oeste 0 -- -- 85
2019-06-17 21:00:00 17.7 10 Noroeste 24 Oeste 0 -- -- 84
2019-06-17 20:00:00 18 10 Noroeste 22 Noroeste 0 -- -- 84
2019-06-17 19:00:00 18.5 11 Noroeste 24 Noroeste 0 -- -- 83
2019-06-17 18:00:00 19.1 7 Nordeste 16 Norte 0 -- -- 84
2019-06-17 17:00:00 19.4 10 Nordeste 19 Nordeste 0 -- -- 83
2019-06-17 16:00:00 19.5 9 Nordeste 24 Nordeste 0 -- -- 84
2019-06-17 15:00:00 19.2 12 Nordeste 23 Nordeste 0 -- -- 83
2019-06-17 14:00:00 18.9 15 Nordeste 22 Nordeste 0 -- -- 84
2019-06-17 13:00:00 18.9 12 Nordeste 18 Este 0 -- -- 83
2019-06-17 12:00:00 19 8 Nordeste 14 Nordeste 0 -- -- 82
2019-06-17 11:00:00 18.4 6 Este 9 Nordeste 0 -- -- 87
2019-06-17 10:00:00 16.2 5 Sudoeste 9 Sudoeste 0 -- -- 95
2019-06-17 09:00:00 14.8 0 Calma 7 Sudeste 0 -- -- 98
2019-06-17 08:00:00 13.7 5 Sur 8 Sudeste 0 -- -- 99
2019-06-17 07:00:00 12.9 4 Sur 7 Sur 0 -- -- 98
2019-06-17 06:00:00 12.5 4 Sur 8 Sur 0 -- -- 98
2019-06-17 05:00:00 11.5 0 Calma 4 Sudeste 0 -- -- 97
2019-06-17 04:00:00 12.4 3 Sur 8 Sur 0 -- -- 97
2019-06-17 03:00:00 12.8 0 Calma 5 Sur 0 -- -- 96
2019-06-17 02:00:00 13.5 3 Sudeste 5 Sudeste 0 -- -- 95
2019-06-17 01:00:00 14.1 3 Sur 6 Sur 0 -- -- 95
2019-06-17 00:00:00 14.4 0 Calma 5 Noroeste 0 -- -- 92
2019-06-16 23:00:00 15.9 2 Noroeste 4 Noroeste 0 -- -- 89
2019-06-16 22:00:00 17.1 3 Noroeste 7 Norte 0 -- -- 84
2019-06-16 21:00:00 18.3 3 Nordeste 10 Nordeste 0 -- -- 79
2019-06-16 20:00:00 18.8 6 Nordeste 15 Norte 0 -- -- 78
2019-06-16 19:00:00 18.6 7 Nordeste 19 Nordeste 0 -- -- 82
2019-06-16 18:00:00 19 11 Nordeste 26 Nordeste 0 -- -- 81
2019-06-16 17:00:00 19.1 13 Nordeste 33 Nordeste 0 -- -- 83
2019-06-16 16:00:00 18.7 20 Nordeste 38 Nordeste 0 -- -- 82
2019-06-16 15:00:00 18.4 21 Nordeste 38 Este 0 -- -- 82
2019-06-16 14:00:00 18.6 21 Nordeste 36 Nordeste 0 -- -- 81
2019-06-16 13:00:00 18.4 26 Este 42 Este 0 -- -- 80
2019-06-16 12:00:00 18.6 20 Nordeste 30 Este 0 -- -- 75
2019-06-16 11:00:00 18.8 13 Nordeste 25 Este 0 -- -- 72
2019-06-16 10:00:00 16.5 3 Sudeste 10 Sur 0 -- -- 76
2019-06-16 09:00:00 13.2 7 Sur 16 Sur 0 -- -- 83
2019-06-16 08:00:00 10.7 9 Sur 17 Sudeste 0 -- -- 90
2019-06-16 07:00:00 9.1 5 Sudoeste 17 Sudeste 0 -- -- 93
2019-06-16 06:00:00 9.7 6 Sur 14 Sur 0 -- -- 91
2019-06-16 05:00:00 10 8 Sur 17 Sudeste 0 -- -- 91
2019-06-16 04:00:00 10.7 10 Sur 21 Sur 0 -- -- 91
2019-06-16 03:00:00 10.8 7 Sur 18 Sur 0 -- -- 92
2019-06-16 02:00:00 11.7 5 Sur 14 Sur 0 -- -- 90
2019-06-16 01:00:00 12.8 5 Sur 10 Sur 0 -- -- 85
2019-06-16 00:00:00 14.2 5 Sur 9 Sur 0 -- -- 83
2019-06-15 23:00:00 15.8 0 Calma 4 Nordeste 0 -- -- 78
2019-06-15 22:00:00 16.7 2 Nordeste 7 Nordeste 0 -- -- 68
2019-06-15 21:00:00 17.2 4 Nordeste 10 Nordeste 0 -- -- 65
2019-06-15 20:00:00 17.7 4 Nordeste 11 Nordeste 0 -- -- 64
2019-06-15 19:00:00 17.8 5 Nordeste 13 Nordeste 0 -- -- 67
2019-06-15 18:00:00 17.9 8 Norte 15 Norte 0 -- -- 72
2019-06-15 17:00:00 18 9 Nordeste 19 Norte 0 -- -- 71
2019-06-15 16:00:00 19.3 9 Nordeste 18 Este 0 -- -- 66
2019-06-15 15:00:00 18.8 10 Nordeste 24 Este 0 -- -- 67
2019-06-15 14:00:00 19.2 12 Nordeste 19 Nordeste 0 -- -- 63
2019-06-15 13:00:00 19.3 9 Nordeste 16 Nordeste 0 -- -- 67
2019-06-15 12:00:00 19.5 8 Nordeste 13 Nordeste 0 -- -- 66
2019-06-15 11:00:00 17.7 5 Sudeste 11 Sur 0 -- -- 74
2019-06-15 10:00:00 15.7 8 Sudeste 16 Sudeste 0 -- -- 84
2019-06-15 09:00:00 14.3 10 Sudeste 15 Sudeste 0 -- -- 91
2019-06-15 08:00:00 12.1 5 Sur 16 Sur 0 -- -- 98
2019-06-15 07:00:00 11.6 6 Sur 15 Sur 0 -- -- 99
2019-06-15 06:00:00 11.5 6 Sur 14 Sur 0 -- -- 99
2019-06-15 05:00:00 11.6 7 Sur 14 Sur 0 -- -- 98
2019-06-15 04:00:00 11.7 4 Sur 8 Sudoeste 0 -- -- 98
2019-06-15 03:00:00 12.1 4 Sur 7 Sur 0 -- -- 98
2019-06-15 02:00:00 12.1 4 Sur 7 Sur 0 -- -- 98
2019-06-15 01:00:00 12.6 4 Sudoeste 8 Sur 0 -- -- 97
2019-06-15 00:00:00 12.5 0 Calma 4 Sudeste 0 -- -- 96
2019-06-14 23:00:00 13.3 2 Oeste 6 Sudeste 0 -- -- 94
2019-06-14 22:00:00 14 0 Calma 8 Sur 0 -- -- 92
2019-06-14 21:00:00 15 5 Sur 9 Sudeste 0 -- -- 90
2019-06-14 20:00:00 14.5 3 Oeste 12 Norte 0 -- -- 93
2019-06-14 19:00:00 14.7 5 Noroeste 10 Noroeste 0 -- -- 92
2019-06-14 18:00:00 14.9 5 Noroeste 11 Este 0 -- -- 88
2019-06-14 17:00:00 15.4 6 Nordeste 18 Nordeste 0 -- -- 86
2019-06-14 16:00:00 16.2 10 Nordeste 17 Este 0 -- -- 80
2019-06-14 15:00:00 16 9 Nordeste 18 Nordeste 0 -- -- 80
2019-06-14 14:00:00 16 9 Nordeste 18 Nordeste 0 -- -- 82
2019-06-14 13:00:00 15.7 10 Nordeste 19 Este 0 -- -- 82
2019-06-14 12:00:00 15.9 9 Nordeste 14 Nordeste 0 -- -- 77
2019-06-14 11:00:00 15.6 8 Este 13 Nordeste 0 -- -- 79
2019-06-14 10:00:00 15.9 6 Este 11 Este 0 -- -- 77
2019-06-14 09:00:00 14.9 3 Sur 6 Sur 0 -- -- 94
2019-06-14 08:00:00 12.3 0 Calma 5 Sur 0 -- -- 99
2019-06-14 07:00:00 11.5 0 Calma 4 Sudoeste 0 -- -- 99
2019-06-14 06:00:00 10.9 0 Calma 8 Sur 0 -- -- 99
2019-06-14 05:00:00 10.1 0 Calma 4 Sudeste 0 -- -- 99
2019-06-14 04:00:00 9.4 0 Calma 4 Sur 0 -- -- 98
2019-06-14 03:00:00 9.9 0 Calma 9 Sur 0 -- -- 97
2019-06-14 02:00:00 10.7 5 Sur 9 Sur 0 -- -- 97
2019-06-14 01:00:00 11.5 3 Sur 10 Sur 0 -- -- 96
2019-06-14 00:00:00 12.3 5 Sudoeste 9 Sur 0 -- -- 95
2019-06-13 23:00:00 13.1 4 Sur 8 Sur 0 -- -- 93
2019-06-13 22:00:00 13.9 4 Sur 9 Sudoeste 0 -- -- 89
2019-06-13 21:00:00 14.4 5 Sur 8 Sur 0 -- -- 88
2019-06-13 20:00:00 14.8 5 Noroeste 18 Noroeste 0 -- -- 83
2019-06-13 19:00:00 15.7 5 Norte 18 Norte 0 -- -- 72
2019-06-13 18:00:00 15.9 6 Nordeste 14 Nordeste 0 -- -- 73
2019-06-13 17:00:00 15.9 9 Nordeste 18 Este 0 -- -- 73
2019-06-13 16:00:00 16.3 11 Nordeste 24 Nordeste 0 -- -- 73
2019-06-13 15:00:00 16.8 14 Nordeste 23 Este 0 -- -- 73
2019-06-13 14:00:00 17.2 12 Nordeste 22 Nordeste 0 -- -- 71
2019-06-13 13:00:00 16.3 14 Nordeste 25 Este 0 -- -- 70
2019-06-13 12:00:00 16.6 12 Nordeste 21 Este 0 -- -- 68
2019-06-13 11:00:00 15.3 5 Nordeste 9 Nordeste 0 -- -- 72
2019-06-13 10:00:00 13.6 6 Sur 14 Sur 0 -- -- 81
2019-06-13 09:00:00 12.2 7 Sur 14 Sur 0 -- -- 92
2019-06-13 08:00:00 10.5 8 Sur 12 Sudoeste 0 -- -- 97
2019-06-13 07:00:00 9.3 5 Sur 12 Sur 0 -- -- 96
2019-06-13 06:00:00 9.4 6 Sur 13 Sur 0 -- -- 97
2019-06-13 05:00:00 9.9 5 Sur 11 Sur 0 -- -- 96
2019-06-13 04:00:00 10.4 2 Sur 8 Sur 0 -- -- 95
2019-06-13 03:00:00 10.8 4 Sur 8 Sur 0 -- -- 94
2019-06-13 02:00:00 11.7 0 Calma 6 Sur 0 -- -- 87
2019-06-13 01:00:00 12.9 3 Sur 6 Sudeste 0 -- -- 85
2019-06-13 00:00:00 13.8 3 Noroeste 5 Oeste 0 -- -- 79
2019-06-12 23:00:00 14.4 2 Oeste 5 Sur 0 -- -- 73
2019-06-12 22:00:00 15 2 Noroeste 12 Noroeste 0 -- -- 70
2019-06-12 21:00:00 15.8 4 Noroeste 21 Oeste 0 -- -- 66
2019-06-12 20:00:00 16.6 10 Noroeste 25 Oeste 0 -- -- 60
2019-06-12 19:00:00 16.5 9 Noroeste 24 Noroeste 0 -- -- 58
2019-06-12 18:00:00 16.9 15 Noroeste 27 Norte 0 -- -- 59
2019-06-12 17:00:00 17.5 12 Noroeste 27 Noroeste 0 -- -- 57
2019-06-12 16:00:00 17.4 11 Oeste 30 Oeste 0 -- -- 58
2019-06-12 15:00:00 16.7 12 Noroeste 27 Oeste 0 -- -- 57
2019-06-12 14:00:00 16.9 14 Noroeste 24 Noroeste 0 -- -- 54
2019-06-12 13:00:00 16.8 14 Oeste 35 Oeste 0 -- -- 55
2019-06-12 12:00:00 17.1 16 Noroeste 42 Oeste 0 -- -- 54
2019-06-12 11:00:00 16.1 15 Oeste 31 Noroeste 0 -- -- 59
2019-06-12 10:00:00 14.3 9 Oeste 24 Oeste 0 -- -- 59
2019-06-12 09:00:00 14 9 Sudoeste 26 Oeste 0 -- -- 59
2019-06-12 08:00:00 13.5 13 Oeste 30 Noroeste 0 -- -- 59
2019-06-12 07:00:00 13.1 9 Oeste 27 Sudoeste 0 -- -- 59
2019-06-12 06:00:00 13 9 Oeste 22 Oeste 0 -- -- 61
2019-06-12 05:00:00 13 11 Oeste 29 Oeste 0 -- -- 63
2019-06-12 04:00:00 13 10 Oeste 25 Oeste 0 -- -- 64
2019-06-12 03:00:00 12.8 9 Oeste 33 Oeste 0 -- -- 66
2019-06-12 02:00:00 12.6 9 Sudoeste 23 Oeste 0 -- -- 71
2019-06-12 01:00:00 12.7 9 Sudoeste 25 Oeste 0 -- -- 76
2019-06-12 00:00:00 12.7 11 Sudoeste 21 Sur 0 -- -- 81
2019-06-11 23:00:00 12.9 10 Sudoeste 25 Oeste 0 -- -- 81
2019-06-11 22:00:00 13.4 8 Oeste 20 Oeste 0 -- -- 83
2019-06-11 21:00:00 13.5 6 Sudoeste 33 Noroeste 0.6 -- -- 84
2019-06-11 20:00:00 13.5 8 Oeste 41 Noroeste 0.8 -- -- 81
2019-06-11 19:00:00 16.2 16 Noroeste 40 Noroeste 0 -- -- 63
2019-06-11 18:00:00 16.2 14 Noroeste 37 Oeste 0.2 -- -- 62
2019-06-11 17:00:00 16.4 19 Oeste 42 Oeste 0 -- -- 61
2019-06-11 16:00:00 16.3 17 Noroeste 40 Noroeste 0 -- -- 66
2019-06-11 15:00:00 15.2 15 Noroeste 41 Norte 0.2 -- -- 76
2019-06-11 14:00:00 14.3 13 Noroeste 36 Noroeste 3 -- -- 80
2019-06-11 13:00:00 13.8 13 Noroeste 31 Noroeste 0.6 -- -- 82
2019-06-11 12:00:00 12.6 9 Sudoeste 22 Sudoeste 1.6 -- -- 89
2019-06-11 11:00:00 12.2 12 Oeste 34 Oeste 0.8 -- -- 84
2019-06-11 10:00:00 12.5 12 Oeste 28 Oeste 0.2 -- -- 85
2019-06-11 09:00:00 11.1 9 Sudoeste 25 Sudoeste 1.4 -- -- 90
2019-06-11 08:00:00 10.7 3 Sudeste 15 Oeste 1.6 -- -- 94
2019-06-11 07:00:00 11 6 Oeste 24 Oeste 6.8 -- -- 94
2019-06-11 06:00:00 11.6 9 Sudoeste 17 Sudoeste 0.4 -- -- 93
2019-06-11 05:00:00 11.3 3 Sur 13 Norte 1 -- -- 95
2019-06-11 04:00:00 11.4 6 Sudoeste 14 Oeste 0.6 -- -- 92
2019-06-11 03:00:00 11.4 8 Sudoeste 22 Sudoeste 0.2 -- -- 92
2019-06-11 02:00:00 11.7 5 Oeste 17 Sudoeste 0.8 -- -- 91
2019-06-11 01:00:00 12.2 6 Oeste 23 Oeste 0.2 -- -- 87
2019-06-11 00:00:00 12.5 4 Sur 7 Sur 0.2 -- -- 88
2019-06-10 23:00:00 12.9 4 Sur 10 Sudoeste 0.4 -- -- 86
2019-06-10 22:00:00 13.9 5 Sudoeste 11 Oeste 0 -- -- 73
2019-06-10 21:00:00 14.8 6 Oeste 12 Oeste 0 -- -- 69
2019-06-10 20:00:00 15.3 4 Noroeste 16 Noroeste 0 -- -- 67
2019-06-10 19:00:00 15.8 9 Noroeste 16 Noroeste 0 -- -- 58
2019-06-10 18:00:00 16.6 11 Noroeste 18 Noroeste 0 -- -- 58
2019-06-10 17:00:00 16.9 8 Noroeste 22 Noroeste 0 -- -- 58
2019-06-10 16:00:00 17.2 10 Norte 23 Nordeste 0 -- -- 60
2019-06-10 15:00:00 16.5 12 Este 21 Este 0 -- -- 66
2019-06-10 14:00:00 15.9 8 Nordeste 18 Norte 0 -- -- 69
2019-06-10 13:00:00 15.9 8 Nordeste 14 Nordeste 0 -- -- 67
2019-06-10 12:00:00 16.1 5 Este 12 Oeste 0 -- -- 64
2019-06-10 11:00:00 15.3 4 Este 9 Sudeste 0 -- -- 72
2019-06-10 10:00:00 13.9 8 Sudeste 16 Sur 0 -- -- 89
2019-06-10 09:00:00 12.5 10 Sudeste 17 Sudeste 0 -- -- 97
2019-06-10 08:00:00 11.4 8 Sur 13 Sudeste 0 -- -- 99
2019-06-10 07:00:00 9.9 5 Sur 9 Sur 0 -- -- 99
2019-06-10 06:00:00 10.8 5 Sur 12 Sur 0 -- -- 98
2019-06-10 05:00:00 10.4 3 Oeste 8 Sur 0 -- -- 97
2019-06-10 04:00:00 11.2 3 Sur 6 Sur 0 -- -- 97
2019-06-10 03:00:00 11.9 5 Sur 8 Sudeste 0 -- -- 96
2019-06-10 02:00:00 12.4 0 Calma 4 Sur 0 -- -- 95
2019-06-10 01:00:00 12.8 3 Sudoeste 8 Sudoeste 0.2 -- -- 94
2019-06-10 00:00:00 12.8 3 Oeste 7 Sudoeste 0 -- -- 95
2019-06-09 23:00:00 12.8 3 Sur 6 Oeste 0 -- -- 95
2019-06-09 22:00:00 13 2 Noroeste 12 Oeste 0.2 -- -- 94
2019-06-09 21:00:00 13.5 5 Sudoeste 11 Sudoeste 0 -- -- 92
2019-06-09 20:00:00 13.5 5 Oeste 11 Oeste 0 -- -- 93
2019-06-09 19:00:00 13.5 4 Noroeste 12 Noroeste 0 -- -- 94
2019-06-09 18:00:00 13.3 8 Noroeste 23 Noroeste 0 -- -- 96
2019-06-09 17:00:00 13.6 11 Noroeste 29 Noroeste 0.8 -- -- 96
2019-06-09 16:00:00 14.8 9 Norte 20 Noroeste 0.2 -- -- 94
2019-06-09 15:00:00 15.9 10 Noroeste 22 Noroeste 0 -- -- 83
2019-06-09 14:00:00 15.9 11 Noroeste 24 Noroeste 0 -- -- 82
2019-06-09 13:00:00 15.8 11 Noroeste 25 Noroeste 0 -- -- 82
2019-06-09 12:00:00 16 8 Noroeste 18 Oeste 0 -- -- 85
2019-06-09 11:00:00 15.2 7 Oeste 13 Noroeste 0 -- -- 90
2019-06-09 10:00:00 14.5 4 Noroeste 9 Oeste 0 -- -- 95
2019-06-09 09:00:00 13.7 4 Sudoeste 7 Sudoeste 0.6 -- -- 95
2019-06-09 08:00:00 13.7 4 Sur 7 Sudoeste 0.2 -- -- 95
2019-06-09 07:00:00 14 4 Oeste 8 Oeste 0 -- -- 88
2019-06-09 06:00:00 14.8 3 Este 13 Este 0 -- -- 78
2019-06-09 05:00:00 14.9 9 Este 15 Este 0 -- -- 73
2019-06-09 04:00:00 14.6 9 Este 18 Este 0 -- -- 73
2019-06-09 03:00:00 14.6 3 Sur 6 Sudoeste 0 -- -- 80
2019-06-09 02:00:00 14.7 4 Sudoeste 8 Sudoeste 0 -- -- 77
2019-06-09 01:00:00 15.2 3 Noroeste 8 Norte 0 -- -- 74
2019-06-09 00:00:00 15.4 3 Noroeste 9 Norte 0 -- -- 71
2019-06-08 23:00:00 15.5 6 Nordeste 11 Nordeste 0 -- -- 69
2019-06-08 22:00:00 15.6 6 Nordeste 15 Este 0 -- -- 69
2019-06-08 21:00:00 15.8 8 Nordeste 15 Este 0 -- -- 65
2019-06-08 20:00:00 16.2 6 Nordeste 20 Este 0 -- -- 66
2019-06-08 19:00:00 16.5 9 Nordeste 28 Este 0 -- -- 66
2019-06-08 18:00:00 16.5 17 Nordeste 33 Este 0 -- -- 62
2019-06-08 17:00:00 16.5 25 Este 37 Este 0 -- -- 62
2019-06-08 16:00:00 16.9 27 Este 39 Este 0 -- -- 63
2019-06-08 15:00:00 17.4 24 Este 43 Este 0 -- -- 63
2019-06-08 14:00:00 16.9 24 Nordeste 37 Este 0 -- -- 61
2019-06-08 13:00:00 17.1 22 Nordeste 37 Este 0 -- -- 58
2019-06-08 12:00:00 16.5 21 Este 27 Nordeste 0 -- -- 56
2019-06-08 11:00:00 17 9 Nordeste 18 Este 0 -- -- 59
2019-06-08 10:00:00 15.8 3 Sur 12 Sur 0 -- -- 65
2019-06-08 09:00:00 14.2 5 Sur 12 Sur 0 -- -- 76
2019-06-08 08:00:00 12.2 4 Sur 12 Sur 0 -- -- 86
2019-06-08 07:00:00 11.5 5 Sur 9 Sur 0 -- -- 87
2019-06-08 06:00:00 11.4 4 Sur 10 Sur 0 -- -- 84
2019-06-08 05:00:00 11.3 5 Sur 10 Sur 0 -- -- 84
2019-06-08 04:00:00 11.1 4 Sur 11 Sur 0 -- -- 85
2019-06-08 03:00:00 11.2 5 Sur 10 Sur 0 -- -- 82
2019-06-08 02:00:00 12.7 3 Oeste 9 Sudoeste 0 -- -- 70
2019-06-08 01:00:00 13.6 4 Sudoeste 9 Oeste 0 -- -- 68
2019-06-08 00:00:00 14.2 5 Oeste 9 Oeste 0 -- -- 67
2019-06-07 23:00:00 14.4 3 Oeste 8 Sudoeste 0 -- -- 65
2019-06-07 22:00:00 15 4 Oeste 18 Oeste 0 -- -- 61
2019-06-07 21:00:00 15.8 5 Oeste 20 Noroeste 0 -- -- 57
2019-06-07 20:00:00 17.2 12 Noroeste 30 Noroeste 0 -- -- 49
2019-06-07 19:00:00 17.5 14 Noroeste 33 Norte 0 -- -- 44
2019-06-07 18:00:00 17.5 18 Noroeste 39 Oeste 0 -- -- 44
2019-06-07 17:00:00 18 19 Noroeste 41 Oeste 0 -- -- 45
2019-06-07 16:00:00 18.4 19 Noroeste 45 Noroeste 0 -- -- 48
2019-06-07 15:00:00 18.9 19 Noroeste 48 Noroeste 0 -- -- 45
2019-06-07 14:00:00 18.6 24 Noroeste 42 Noroeste 0 -- -- 51
2019-06-07 13:00:00 18.6 21 Noroeste 49 Noroeste 0 -- -- 41
2019-06-07 12:00:00 18.7 19 Oeste 39 Noroeste 0 -- -- 38
2019-06-07 11:00:00 18 18 Oeste 35 Oeste 0 -- -- 41
2019-06-07 10:00:00 17.7 12 Noroeste 39 Noroeste 0 -- -- 42
2019-06-07 09:00:00 16.7 7 Oeste 17 Oeste 0 -- -- 46
2019-06-07 08:00:00 14.7 7 Noroeste 10 Noroeste 0 -- -- 54
2019-06-07 07:00:00 14.5 5 Oeste 29 Oeste 0 -- -- 46
2019-06-07 06:00:00 15.8 14 Sudoeste 39 Sudoeste 0 -- -- 40
2019-06-07 05:00:00 16.1 10 Sudoeste 32 Oeste 0 -- -- 41
2019-06-07 04:00:00 16.3 9 Sudoeste 24 Oeste 0 -- -- 42
2019-06-07 03:00:00 16.9 9 Sudoeste 38 Oeste 0 -- -- 43
2019-06-07 02:00:00 16.7 13 Sudoeste 37 Sur 0 -- -- 42
2019-06-07 01:00:00 15.7 10 Sur 36 Oeste 0.2 -- -- 79
2019-06-07 00:00:00 20.7 26 Oeste 47 Sudoeste 0 -- -- 49
2019-06-06 23:00:00 21.1 9 Sur 44 Sur 0 -- -- 43
2019-06-06 22:00:00 22 12 Sudoeste 39 Sudoeste 0 -- -- 38
2019-06-06 21:00:00 19.4 8 Sur 21 Oeste 0 -- -- 66
2019-06-06 20:00:00 19.3 6 Norte 13 Norte 0 -- -- 71
2019-06-06 19:00:00 19.3 7 Norte 17 Nordeste 0 -- -- 71
2019-06-06 18:00:00 19.9 5 Norte 23 Nordeste 0 -- -- 64
2019-06-06 17:00:00 20.2 12 Nordeste 27 Nordeste 0 -- -- 61
2019-06-06 16:00:00 20.6 10 Nordeste 24 Nordeste 0 -- -- 56
2019-06-06 15:00:00 20.3 12 Este 28 Este 0 -- -- 56
2019-06-06 14:00:00 22.2 8 Sudeste 31 Sur 0 -- -- 42
2019-06-06 13:00:00 20.9 16 Sur 36 Sudeste 0 -- -- 41
2019-06-06 12:00:00 19.4 9 Sudeste 29 Sur 0 -- -- 53
2019-06-06 11:00:00 18 9 Sudeste 22 Sur 0 -- -- 57
2019-06-06 10:00:00 15.6 6 Sudeste 18 Sur 0 -- -- 69
2019-06-06 09:00:00 12.8 11 Sur 23 Sudeste 0 -- -- 79
2019-06-06 08:00:00 11.2 11 Sur 20 Sudeste 0 -- -- 89
2019-06-06 07:00:00 10.8 7 Sur 19 Sudeste 0 -- -- 91
2019-06-06 06:00:00 11.3 7 Sur 16 Sur 0 -- -- 90
2019-06-06 05:00:00 11.4 8 Sur 13 Sur 0 -- -- 91
2019-06-06 04:00:00 11.6 4 Sur 13 Sur 0 -- -- 91
2019-06-06 03:00:00 11.7 6 Sur 12 Sudeste 0 -- -- 89
2019-06-06 02:00:00 12 4 Sur 14 Sudeste 0 -- -- 89
2019-06-06 01:00:00 12.2 7 Sur 13 Sur 0 -- -- 86
2019-06-06 00:00:00 12.7 5 Sur 9 Sur 0 -- -- 84
2019-06-05 23:00:00 13.4 4 Sur 11 Oeste 0 -- -- 76
2019-06-05 22:00:00 14 6 Sudoeste 10 Oeste 0 -- -- 70
2019-06-05 21:00:00 14.2 4 Sudoeste 16 Sudoeste 0 -- -- 72
2019-06-05 20:00:00 14.8 8 Oeste 26 Noroeste 0 -- -- 68
2019-06-05 19:00:00 16.6 15 Noroeste 26 Oeste 0.2 -- -- 59
2019-06-05 18:00:00 16.1 11 Oeste 33 Noroeste 0 -- -- 65
2019-06-05 17:00:00 15.9 17 Noroeste 32 Noroeste 0 -- -- 68
2019-06-05 16:00:00 16.7 14 Noroeste 35 Oeste 0 -- -- 67
2019-06-05 15:00:00 15.8 19 Noroeste 41 Oeste 0 -- -- 67
2019-06-05 14:00:00 15.7 18 Noroeste 36 Oeste 0 -- -- 72
2019-06-05 13:00:00 15.1 17 Noroeste 39 Noroeste 0 -- -- 73
2019-06-05 12:00:00 15 18 Noroeste 35 Noroeste 0 -- -- 76
2019-06-05 11:00:00 14.1 11 Oeste 31 Noroeste 0 -- -- 86
2019-06-05 10:00:00 13.6 10 Oeste 24 Oeste 0.2 -- -- 91
2019-06-05 09:00:00 12.9 10 Oeste 23 Oeste 0 -- -- 91
2019-06-05 08:00:00 12.4 7 Oeste 15 Sudoeste 0.6 -- -- 96
2019-06-05 07:00:00 12 3 Sur 12 Sur 2.4 -- -- 96
2019-06-05 06:00:00 12.1 6 Sudoeste 18 Oeste 4.6 -- -- 96
2019-06-05 05:00:00 12.4 4 Sur 12 Sur 2.6 -- -- 97
2019-06-05 04:00:00 12.5 3 Sur 10 Sur 1.4 -- -- 96
2019-06-05 03:00:00 12.7 7 Sur 13 Sur 0.6 -- -- 96
2019-06-05 02:00:00 12.8 4 Sur 11 Sur 1 -- -- 94
2019-06-05 01:00:00 13.4 4 Sur 17 Sudoeste 0.8 -- -- 91
2019-06-05 00:00:00 14.3 9 Sudoeste 18 Sudoeste 0 -- -- 80
2019-06-04 23:00:00 14.8 6 Oeste 12 Sudoeste 0 -- -- 80
2019-06-04 22:00:00 14.7 5 Sudoeste 13 Sudoeste 0 -- -- 85
2019-06-04 21:00:00 14.5 7 Oeste 18 Norte 0 -- -- 89
2019-06-04 20:00:00 15.7 9 Noroeste 19 Oeste 0 -- -- 78
2019-06-04 19:00:00 16.6 9 Oeste 25 Oeste 0 -- -- 72
2019-06-04 18:00:00 16.7 8 Oeste 30 Oeste 0 -- -- 71
2019-06-04 17:00:00 16.9 10 Noroeste 35 Noroeste 0 -- -- 70
2019-06-04 16:00:00 17.2 17 Noroeste 38 Noroeste 0 -- -- 76
2019-06-04 15:00:00 19.6 12 Nordeste 27 Nordeste 0 -- -- 80
2019-06-04 14:00:00 21.2 10 Nordeste 25 Norte 0 -- -- 77
2019-06-04 13:00:00 21.9 9 Noroeste 22 Noroeste 0 -- -- 71
2019-06-04 12:00:00 20.7 10 Noroeste 21 Noroeste 0 -- -- 74
2019-06-04 11:00:00 19.6 12 Norte 20 Noroeste 0 -- -- 81
2019-06-04 10:00:00 18.7 4 Este 9 Sudeste 0 -- -- 88
2019-06-04 09:00:00 16.9 4 Sudeste 6 Sudeste 0 -- -- 96
2019-06-04 08:00:00 15.8 4 Sur 12 Sur 0 -- -- 98
2019-06-04 07:00:00 14.7 5 Sur 8 Sur 0 -- -- 98
2019-06-04 06:00:00 14.6 5 Sur 10 Sudoeste 0 -- -- 98
2019-06-04 05:00:00 13.7 2 Sur 7 Sur 0 -- -- 97
2019-06-04 04:00:00 14.1 3 Oeste 6 Sur 0 -- -- 97
2019-06-04 03:00:00 14.6 3 Sur 7 Sudeste 0 -- -- 96
2019-06-04 02:00:00 14.9 0 Calma 3 Sudoeste 0 -- -- 94
2019-06-04 01:00:00 16 0 Calma 5 Sudeste 0 -- -- 93
2019-06-04 00:00:00 16.8 3 Sudeste 6 Sudeste 0 -- -- 91
2019-06-03 23:00:00 17.7 0 Calma 8 Nordeste 0 -- -- 90
2019-06-03 22:00:00 18.1 5 Nordeste 10 Nordeste 0 -- -- 88
2019-06-03 21:00:00 18.6 6 Nordeste 14 Este 0 -- -- 85
2019-06-03 20:00:00 19.2 9 Nordeste 19 Nordeste 0 -- -- 80
2019-06-03 19:00:00 19.6 10 Nordeste 23 Nordeste 0 -- -- 77
2019-06-03 18:00:00 20.1 10 Nordeste 25 Este 0 -- -- 77
2019-06-03 17:00:00 20.2 12 Nordeste 25 Este 0 -- -- 78
2019-06-03 16:00:00 20.2 12 Nordeste 28 Nordeste 0 -- -- 78
2019-06-03 15:00:00 20.4 13 Nordeste 25 Este 0 -- -- 73
2019-06-03 14:00:00 20.6 13 Nordeste 21 Este 0 -- -- 73
2019-06-03 13:00:00 20.2 13 Este 20 Este 0 -- -- 69
2019-06-03 12:00:00 19.4 11 Nordeste 19 Este 0 -- -- 72
2019-06-03 11:00:00 20.8 6 Nordeste 12 Nordeste 0 -- -- 69
2019-06-03 10:00:00 19.1 4 Sudeste 10 Sudeste 0 -- -- 77
2019-06-03 09:00:00 17.9 5 Sur 10 Sudeste 0 -- -- 81
2019-06-03 08:00:00 15.5 4 Sur 19 Oeste 0 -- -- 89
2019-06-03 07:00:00 15.1 7 Noroeste 11 Sur 0 -- -- 89
2019-06-03 06:00:00 14.5 8 Sur 16 Sur 0 -- -- 93
2019-06-03 05:00:00 14.7 3 Sur 12 Sur 0 -- -- 91
2019-06-03 04:00:00 14.8 4 Sur 8 Sudeste 0 -- -- 91
2019-06-03 03:00:00 15 2 Oeste 8 Sudeste 0 -- -- 89
2019-06-03 02:00:00 15.3 3 Sur 14 Sudeste 0 -- -- 90
2019-06-03 01:00:00 15.7 7 Sur 16 Sur 0 -- -- 85
2019-06-03 00:00:00 16.5 2 Sur 11 Sudoeste 0 -- -- 82
2019-06-02 23:00:00 16.7 2 Sudeste 5 Noroeste 0 -- -- 78
2019-06-02 22:00:00 18.2 3 Noroeste 6 Norte 0 -- -- 71
2019-06-02 21:00:00 19.5 3 Noroeste 10 Noroeste 0 -- -- 65
2019-06-02 20:00:00 20.5 5 Norte 14 Norte 0 -- -- 60
2019-06-02 19:00:00 21.4 9 Norte 21 Noroeste 0 -- -- 56
2019-06-02 18:00:00 22.2 11 Noroeste 21 Noroeste 0 -- -- 44
2019-06-02 17:00:00 22.9 11 Norte 20 Norte 0 -- -- 39
2019-06-02 16:00:00 23.4 8 Nordeste 20 Norte 0 -- -- 55
2019-06-02 15:00:00 22.8 9 Norte 22 Nordeste 0 -- -- 63
2019-06-02 14:00:00 23.2 10 Norte 21 Norte 0 -- -- 65
2019-06-02 13:00:00 22.8 9 Nordeste 17 Nordeste 0 -- -- 62
2019-06-02 12:00:00 23.1 8 Nordeste 16 Este 0 -- -- 61
2019-06-02 11:00:00 23 7 Nordeste 11 Nordeste 0 -- -- 65
2019-06-02 10:00:00 21.2 5 Noroeste 9 Sudeste 0 -- -- 70
2019-06-02 09:00:00 18.6 7 Sur 16 Sudeste 0 -- -- 80
2019-06-02 08:00:00 15.9 6 Sur 17 Sur 0 -- -- 89
2019-06-02 07:00:00 14.7 9 Sur 18 Sudoeste 0 -- -- 87
2019-06-02 06:00:00 14.7 5 Sur 13 Sur 0 -- -- 89
2019-06-02 05:00:00 15.6 4 Sur 16 Sudeste 0 -- -- 88
2019-06-02 04:00:00 16.5 7 Sur 21 Sudeste 0 -- -- 86
2019-06-02 03:00:00 16.9 12 Sur 21 Sudeste 0 -- -- 89
2019-06-02 02:00:00 17.2 2 Este 10 Sudeste 0 -- -- 83
2019-06-02 01:00:00 17.4 5 Sur 11 Sur 0 -- -- 85
2019-06-02 00:00:00 18.6 2 Sur 9 Sur 0 -- -- 79
2019-06-01 23:00:00 19.8 3 Sudoeste 12 Oeste 0 -- -- 70
2019-06-01 22:00:00 21.5 5 Noroeste 11 Noroeste 0 -- -- 67
2019-06-01 21:00:00 24.1 0 Calma 7 Norte 0 -- -- 62
2019-06-01 20:00:00 24.9 4 Nordeste 8 Nordeste 0 -- -- 58
2019-06-01 19:00:00 23.8 5 Nordeste 15 Nordeste 0 -- -- 65
2019-06-01 18:00:00 24.2 8 Nordeste 14 Nordeste 0 -- -- 62
2019-06-01 17:00:00 25.4 8 Nordeste 13 Este 0 -- -- 52
2019-06-01 16:00:00 25.6 5 Nordeste 10 Nordeste 0 -- -- 61
2019-06-01 15:00:00 24.6 6 Nordeste 13 Nordeste 0 -- -- 65
2019-06-01 14:00:00 25.3 9 Nordeste 13 Nordeste 0 -- -- 63
2019-06-01 13:00:00 26 6 Nordeste 12 Nordeste 0 -- -- 60
2019-06-01 12:00:00 24.7 8 Nordeste 12 Este 0 -- -- 66
2019-06-01 11:00:00 24.4 8 Nordeste 11 Nordeste 0 -- -- 70
2019-06-01 10:00:00 21.6 3 Sudeste 8 Sudeste 0 -- -- 77
2019-06-01 09:00:00 18.5 5 Sudeste 11 Sudeste 0 -- -- 89
2019-06-01 08:00:00 15.7 5 Sur 10 Sur 0 -- -- 99
2019-06-01 07:00:00 13.3 4 Sudoeste 11 Sur 0 -- -- 98
2019-06-01 06:00:00 13.3 3 Sur 9 Sur 0 -- -- 99
2019-06-01 05:00:00 12.9 0 Calma 9 Sur 0 -- -- 97
2019-06-01 04:00:00 13.1 2 Sudoeste 13 Sur 0 -- -- 97
2019-06-01 03:00:00 12.8 3 Sur 12 Sudeste 0 -- -- 97
2019-06-01 02:00:00 12.9 3 Sur 6 Sur 0 -- -- 96
2019-06-01 01:00:00 13.8 4 Sur 6 Sudeste 0 -- -- 95
2019-06-01 00:00:00 14.4 0 Calma 3 Noroeste 0 -- -- 92
2019-05-31 23:00:00 16.1 2 Noroeste 6 Noroeste 0 -- -- 87
2019-05-31 22:00:00 18 3 Noroeste 12 Este 0 -- -- 82
2019-05-31 21:00:00 19.4 9 Nordeste 22 Nordeste 0 -- -- 78
2019-05-31 20:00:00 20.6 15 Nordeste 32 Este 0 -- -- 73
2019-05-31 19:00:00 21.1 19 Este 32 Nordeste 0 -- -- 70
2019-05-31 18:00:00 21.1 24 Este 36 Este 0 -- -- 71
2019-05-31 17:00:00 21.7 19 Nordeste 35 Este 0 -- -- 69
2019-05-31 16:00:00 21.4 20 Nordeste 34 Nordeste 0 -- -- 70
2019-05-31 15:00:00 20.5 21 Nordeste 31 Este 0 -- -- 75
2019-05-31 14:00:00 20.4 12 Nordeste 24 Este 0 -- -- 81
2019-05-31 13:00:00 19.9 12 Nordeste 28 Nordeste 0 -- -- 82
2019-05-31 12:00:00 20.1 12 Nordeste 24 Nordeste 0 -- -- 79
2019-05-31 11:00:00 19.6 9 Nordeste 16 Nordeste 0 -- -- 79
2019-05-31 10:00:00 18.3 5 Nordeste 8 Norte 0 -- -- 81
2019-05-31 09:00:00 15.8 3 Sur 15 Sudeste 0 -- -- 87
2019-05-31 08:00:00 12.3 6 Sur 13 Sur 0 -- -- 98
2019-05-31 07:00:00 10.6 3 Sur 6 Sur 0 -- -- 98
2019-05-31 06:00:00 10.9 3 Sudeste 8 Sur 0 -- -- 97
2019-05-31 05:00:00 11.6 4 Sur 8 Sur 0 -- -- 97
2019-05-31 04:00:00 12 0 Calma 10 Sur 0 -- -- 97
2019-05-31 03:00:00 11.8 5 Sur 8 Sur 0 -- -- 97
2019-05-31 02:00:00 12.3 4 Sur 8 Sur 0 -- -- 96
2019-05-31 01:00:00 13.3 3 Sur 6 Sur 0 -- -- 94
2019-05-31 00:00:00 14.2 4 Sur 7 Sur 0 -- -- 92
2019-05-30 23:00:00 16 4 Noroeste 15 Nordeste 0 -- -- 89
2019-05-30 22:00:00 16.5 8 Nordeste 19 Este 0 -- -- 88
2019-05-30 21:00:00 17.8 8 Nordeste 27 Nordeste 0 -- -- 78
2019-05-30 20:00:00 18.5 14 Nordeste 25 Nordeste 0 -- -- 75
2019-05-30 19:00:00 19.1 12 Nordeste 25 Nordeste 0 -- -- 75
2019-05-30 18:00:00 19 14 Nordeste 31 Nordeste 0 -- -- 76
2019-05-30 17:00:00 18.4 20 Nordeste 37 Este 0 -- -- 77
2019-05-30 16:00:00 18.4 22 Nordeste 39 Este 0 -- -- 77
2019-05-30 15:00:00 18.1 24 Nordeste 39 Este 0 -- -- 78
2019-05-30 14:00:00 18.1 25 Nordeste 36 Nordeste 0 -- -- 77
2019-05-30 13:00:00 18.2 23 Nordeste 33 Este 0 -- -- 74
2019-05-30 12:00:00 17.9 17 Nordeste 30 Este 0 -- -- 75
2019-05-30 11:00:00 17.7 14 Nordeste 24 Este 0 -- -- 77
2019-05-30 10:00:00 17 6 Nordeste 17 Sudeste 0 -- -- 80
2019-05-30 09:00:00 13.8 7 Sur 17 Sudeste 0 -- -- 91
2019-05-30 08:00:00 11.3 7 Sur 14 Sur 0 -- -- 96
2019-05-30 07:00:00 9.9 7 Sur 17 Sur 0 -- -- 97
2019-05-30 06:00:00 9.4 6 Sur 10 Sudeste 0 -- -- 97
2019-05-30 05:00:00 9.7 4 Sudoeste 14 Sur 0 -- -- 97
2019-05-30 04:00:00 9.8 4 Sur 12 Sur 0 -- -- 96
2019-05-30 03:00:00 10.7 4 Sur 12 Sudeste 0 -- -- 97
2019-05-30 02:00:00 10.9 4 Sur 15 Sur 0 -- -- 95
2019-05-30 01:00:00 11.8 6 Sur 10 Sudeste 0 -- -- 94
2019-05-30 00:00:00 12.1 5 Sur 10 Sur 0 -- -- 92
2019-05-29 23:00:00 13.7 0 Calma 9 Este 0 -- -- 87
2019-05-29 22:00:00 15.1 4 Nordeste 15 Este 0 -- -- 83
2019-05-29 21:00:00 16 8 Nordeste 20 Nordeste 0 -- -- 78
2019-05-29 20:00:00 17 7 Este 22 Este 0 -- -- 70
2019-05-29 19:00:00 16.8 14 Nordeste 22 Nordeste 0 -- -- 74
2019-05-29 18:00:00 17.4 11 Nordeste 19 Nordeste 0 -- -- 71
2019-05-29 17:00:00 17.8 11 Nordeste 17 Este 0 -- -- 68
2019-05-29 16:00:00 17.7 8 Nordeste 14 Este 0 -- -- 73
2019-05-29 15:00:00 17.3 10 Este 15 Este 0 -- -- 75
2019-05-29 14:00:00 16.2 6 Nordeste 15 Este 0 -- -- 80
2019-05-29 13:00:00 16 3 Este 9 Sudoeste 0 -- -- 84
2019-05-29 12:00:00 15.3 3 Sudoeste 6 Sudoeste 0 -- -- 89
2019-05-29 11:00:00 14.7 3 Sudoeste 11 Oeste 0 -- -- 92
2019-05-29 10:00:00 14.3 3 Sudoeste 8 Oeste 0 -- -- 92
2019-05-29 09:00:00 14.1 3 Sur 6 Sudeste 0.4 -- -- 95
2019-05-29 08:00:00 13.3 0 Calma 7 Nordeste 1 -- -- 94
2019-05-29 07:00:00 13.7 3 Oeste 15 Oeste 0 -- -- 87
2019-05-29 06:00:00 13.8 5 Oeste 14 Sudoeste 0 -- -- 85
2019-05-29 05:00:00 14 7 Oeste 16 Oeste 0 -- -- 85
2019-05-29 04:00:00 13.9 7 Sudoeste 17 Oeste 0 -- -- 85
2019-05-29 03:00:00 14 4 Oeste 13 Oeste 0 -- -- 86
2019-05-29 02:00:00 14.1 6 Oeste 12 Noroeste 0 -- -- 85
2019-05-29 01:00:00 14.2 7 Oeste 17 Oeste 0 -- -- 83
2019-05-29 00:00:00 14.1 5 Oeste 12 Oeste 0 -- -- 83
2019-05-28 23:00:00 14.1 8 Oeste 18 Oeste 0 -- -- 82
2019-05-28 22:00:00 14.4 7 Noroeste 15 Oeste 0 -- -- 80
2019-05-28 21:00:00 15.3 8 Noroeste 25 Noroeste 0 -- -- 75
2019-05-28 20:00:00 15.7 13 Noroeste 30 Noroeste 0 -- -- 74
2019-05-28 19:00:00 16.1 17 Noroeste 37 Noroeste 0 -- -- 73
2019-05-28 18:00:00 17.5 15 Noroeste 34 Oeste 0 -- -- 69
2019-05-28 17:00:00 17.5 18 Noroeste 34 Noroeste 0 -- -- 69
2019-05-28 16:00:00 17 13 Noroeste 33 Noroeste 0 -- -- 74
2019-05-28 15:00:00 16.7 19 Noroeste 36 Noroeste 0 -- -- 72
2019-05-28 14:00:00 15.4 11 Noroeste 32 Oeste 0 -- -- 83
2019-05-28 13:00:00 15.1 16 Noroeste 35 Noroeste 0 -- -- 84
2019-05-28 12:00:00 15.9 13 Noroeste 30 Oeste 0 -- -- 80
2019-05-28 11:00:00 15 12 Oeste 27 Oeste 0.2 -- -- 88
2019-05-28 10:00:00 13.3 4 Noroeste 21 Noroeste 0.4 -- -- 91
2019-05-28 09:00:00 12.9 5 Noroeste 19 Oeste 0.8 -- -- 92
2019-05-28 08:00:00 13.2 7 Oeste 14 Oeste 0 -- -- 89
2019-05-28 07:00:00 12.8 5 Oeste 11 Noroeste 0 -- -- 90
2019-05-28 06:00:00 13 5 Oeste 15 Oeste 0 -- -- 89
2019-05-28 05:00:00 12.6 4 Oeste 8 Noroeste 0 -- -- 91
2019-05-28 04:00:00 12.5 3 Oeste 9 Sudoeste 0 -- -- 91
2019-05-28 03:00:00 12.6 4 Oeste 15 Oeste 0 -- -- 90
2019-05-28 02:00:00 12.9 4 Sudoeste 9 Oeste 0 -- -- 92
2019-05-28 01:00:00 12.5 4 Oeste 9 Noroeste 0 -- -- 89
2019-05-28 00:00:00 13.5 5 Oeste 12 Oeste 0 -- -- 86
2019-05-27 23:00:00 14.3 5 Noroeste 15 Noroeste 0 -- -- 85
2019-05-27 22:00:00 14.7 8 Noroeste 17 Noroeste 0 -- -- 85
2019-05-27 21:00:00 15 8 Noroeste 21 Oeste 0 -- -- 82
2019-05-27 20:00:00 15.4 9 Noroeste 23 Noroeste 0 -- -- 84
2019-05-27 19:00:00 15.8 11 Norte 22 Norte 0 -- -- 86
2019-05-27 18:00:00 15.7 12 Noroeste 24 Noroeste 0 -- -- 90
2019-05-27 17:00:00 16.3 12 Noroeste 26 Noroeste 0 -- -- 88
2019-05-27 16:00:00 17 9 Noroeste 25 Noroeste 0 -- -- 92
2019-05-27 15:00:00 16.2 16 Noroeste 28 Noroeste 0.2 -- -- 93
2019-05-27 14:00:00 16.4 14 Noroeste 27 Noroeste 0 -- -- 90
2019-05-27 13:00:00 17 10 Noroeste 23 Noroeste 0 -- -- 84
2019-05-27 12:00:00 16.3 9 Oeste 24 Noroeste 0 -- -- 83
2019-05-27 11:00:00 15.8 6 Noroeste 15 Sudoeste 0 -- -- 82
2019-05-27 10:00:00 15.1 5 Oeste 13 Sudoeste 0 -- -- 84
2019-05-27 09:00:00 14.7 4 Oeste 10 Sudoeste 0 -- -- 86
2019-05-27 08:00:00 14.3 4 Sudoeste 10 Sudoeste 0 -- -- 86
2019-05-27 07:00:00 14.1 4 Sudoeste 12 Sudoeste 0 -- -- 87
2019-05-27 06:00:00 13.9 6 Sudoeste 13 Oeste 0 -- -- 91
2019-05-27 05:00:00 13.9 4 Oeste 10 Oeste 0 -- -- 91
2019-05-27 04:00:00 13.7 2 Oeste 10 Sudoeste 0 -- -- 93
2019-05-27 03:00:00 13.7 4 Sudoeste 9 Sudoeste 0 -- -- 94
2019-05-27 02:00:00 13.7 4 Oeste 6 Oeste 0 -- -- 94
2019-05-27 01:00:00 14 3 Oeste 8 Oeste 0 -- -- 93
2019-05-27 00:00:00 14 6 Oeste 12 Oeste 0 -- -- 94
2019-05-26 23:00:00 14 5 Oeste 10 Oeste 0 -- -- 94
2019-05-26 22:00:00 14 6 Oeste 15 Norte 0.2 -- -- 94
2019-05-26 21:00:00 14.9 7 Norte 13 Norte 0 -- -- 91
2019-05-26 20:00:00 15.7 8 Noroeste 18 Noroeste 0 -- -- 84
2019-05-26 19:00:00 16 9 Norte 21 Noroeste 0 -- -- 85
2019-05-26 18:00:00 16.1 11 Norte 24 Noroeste 0 -- -- 84
2019-05-26 17:00:00 16.9 14 Noroeste 24 Noroeste 0 -- -- 76
2019-05-26 16:00:00 17 13 Noroeste 26 Noroeste 0 -- -- 78
2019-05-26 15:00:00 17.5 13 Noroeste 26 Noroeste 0 -- -- 78
2019-05-26 14:00:00 16.8 13 Noroeste 23 Oeste 0 -- -- 79
2019-05-26 13:00:00 17 9 Norte 23 Noroeste 0 -- -- 77
2019-05-26 12:00:00 17 11 Noroeste 19 Noroeste 0 -- -- 75
2019-05-26 11:00:00 16.3 9 Noroeste 20 Noroeste 0 -- -- 79
2019-05-26 10:00:00 15.2 4 Oeste 10 Oeste 0 -- -- 86
2019-05-26 09:00:00 13.9 4 Sur 12 Sudoeste 0 -- -- 96
2019-05-26 08:00:00 13.1 4 Sur 11 Sudeste 0 -- -- 97
2019-05-26 07:00:00 12.9 3 Sur 8 Sur 0.2 -- -- 97
2019-05-26 06:00:00 13 3 Sudeste 8 Sudeste 0 -- -- 97
2019-05-26 05:00:00 13.1 4 Sudeste 8 Sur 0 -- -- 96
2019-05-26 04:00:00 13 4 Sudeste 8 Sudeste 0 -- -- 96
2019-05-26 03:00:00 13.1 4 Sudeste 9 Sur 0 -- -- 95
2019-05-26 02:00:00 13.2 4 Sudeste 10 Sudoeste 0 -- -- 94
2019-05-26 01:00:00 13.8 4 Oeste 12 Noroeste 0 -- -- 89
2019-05-26 00:00:00 14.4 2 Oeste 6 Noroeste 0 -- -- 87